Time;durP1;ratioP1;P1;durP2;ratioP2;P2;SDS_P1;SDS_P2;PMS_P1;PMS_P2;Temp;Humidity;BMP_temperature;BMP_pressure;BME280_temperature;BME280_humidity;BME280_pressure;Samples;Min_cycle;Max_cycle;Signal;HPM_P1;HPM_P2
2022/11/02 09:32:02;;;;;;;4.63;1.27;;;;;;;;;;6238672;22;20801;-94
2022/11/02 09:35:59;;;;;;;7.22;1.58;;;;;;;;;;6269995;22;20019;-94
2022/11/02 09:45:19;;;;;;;6.70;1.80;;;;;;;;;;6159536;23;20037;-95
2022/11/02 09:49:15;;;;;;;5.50;1.65;;;;;;;;;;6045676;23;20019;-94
2022/11/02 09:53:23;;;;;;;4.45;1.30;;;;;;;;;;6045167;23;20023;-94
2022/11/02 09:57:08;;;;;;;5.93;1.17;;;;;;;;;;5880081;24;20026;-95
2022/11/02 10:00:09;;;;;;;6.45;1.33;;;;;;;;;;5824917;24;20106;-93
2022/11/02 10:04:57;;;;;;;5.18;1.42;;;;;;;;;;5802768;24;20037;-94
2022/11/02 10:09:52;;;;;;;6.28;1.42;;;;;;;;;;5852226;24;20078;-94
2022/11/02 10:17:49;;;;;;;6.85;1.50;;;;;;;;;;5829727;24;20022;-94
2022/11/02 10:22:13;;;;;;;10.88;1.52;;;;;;;;;;5879027;24;20037;-95
2022/11/02 10:26:42;;;;;;;11.80;1.70;;;;;;;;;;5880275;24;20470;-95
2022/11/02 10:30:53;;;;;;;5.00;1.30;;;;;;;;;;5763535;24;20018;-95
2022/11/02 10:39:50;;;;;;;3.83;0.80;;;;;;;;;;5778906;24;20028;-96
2022/11/02 10:48:29;;;;;;;7.55;1.30;;;;;;;;;;5767315;24;20030;-94
2022/11/02 10:53:10;;;;;;;8.23;1.10;;;;;;;;;;5776559;24;21339;-95
2022/11/02 10:56:55;;;;;;;6.28;1.60;;;;;;;;;;5664308;25;20048;-95
2022/11/02 11:00:37;;;;;;;10.20;1.95;;;;;;;;;;5692094;25;20029;-95
2022/11/02 11:04:40;;;;;;;3.70;1.48;;;;;;;;;;5733156;24;20037;-95
2022/11/02 11:08:40;;;;;;;8.02;2.13;;;;;;;;;;5807339;24;20084;-95
2022/11/02 11:12:41;;;;;;;6.82;1.70;;;;;;;;;;5805795;24;20457;-94
2022/11/02 11:16:30;;;;;;;7.72;1.65;;;;;;;;;;5817042;24;20019;-94
2022/11/02 11:33:11;;;;;;;3.17;1.20;;;;;;;;;;5817435;24;20018;-94
2022/11/02 11:37:06;;;;;;;6.47;1.48;;;;;;;;;;5871170;24;20037;-94
2022/11/02 11:41:17;;;;;;;6.05;1.02;;;;;;;;;;5874675;24;20044;-95
2022/11/02 11:44:18;;;;;;;6.82;1.05;;;;;;;;;;5811183;24;20021;-93
2022/11/02 11:52:30;;;;;;;6.35;1.20;;;;;;;;;;5921640;24;20028;-94
2022/11/02 11:56:24;;;;;;;7.28;1.20;;;;;;;;;;5833941;24;20100;-94
2022/11/02 12:00:26;;;;;;;5.72;1.33;;;;;;;;;;5792951;24;20511;-94
2022/11/02 12:04:18;;;;;;;4.65;1.08;;;;;;;;;;5902711;24;20025;-95
2022/11/02 12:08:42;;;;;;;6.05;0.93;;;;;;;;;;5925531;24;20078;-95
2022/11/02 12:17:04;;;;;;;5.80;1.10;;;;;;;;;;5943025;24;20021;-93
2022/11/02 12:21:31;;;;;;;4.10;0.98;;;;;;;;;;5897791;24;20030;-93
2022/11/02 12:30:10;;;;;;;2.72;0.75;;;;;;;;;;5871029;24;20017;-95
2022/11/02 12:34:18;;;;;;;3.13;0.90;;;;;;;;;;5921203;24;20017;-93
2022/11/02 12:38:11;;;;;;;7.85;1.35;;;;;;;;;;5903367;24;20461;-94
2022/11/02 12:42:22;;;;;;;6.53;0.95;;;;;;;;;;5941333;24;20035;-93
2022/11/02 12:46:00;;;;;;;6.65;1.00;;;;;;;;;;5853325;24;20517;-93
2022/11/02 12:54:44;;;;;;;6.43;0.98;;;;;;;;;;5869623;24;20010;-94
2022/11/02 12:58:32;;;;;;;6.22;0.93;;;;;;;;;;5826163;24;20061;-92
2022/11/02 13:03:24;;;;;;;4.63;0.80;;;;;;;;;;5764296;24;20170;-94
2022/11/02 13:07:46;;;;;;;6.75;1.10;;;;;;;;;;5764414;24;20031;-94
2022/11/02 13:12:20;;;;;;;4.18;1.00;;;;;;;;;;5773104;24;20027;-95
2022/11/02 13:16:17;;;;;;;6.57;1.02;;;;;;;;;;5795726;24;20402;-94
2022/11/02 13:24:30;;;;;;;6.38;0.95;;;;;;;;;;5899235;24;20457;-94
2022/11/02 13:28:42;;;;;;;9.10;1.02;;;;;;;;;;5918393;24;20021;-95
2022/11/02 13:32:57;;;;;;;11.63;1.00;;;;;;;;;;5943006;23;20027;-94
2022/11/02 13:36:05;;;;;;;10.13;1.40;;;;;;;;;;5807616;24;20030;-94
2022/11/02 13:40:33;;;;;;;3.88;1.00;;;;;;;;;;5784062;24;20027;-96
2022/11/02 13:44:41;;;;;;;3.30;0.73;;;;;;;;;;5830890;24;20023;-94
2022/11/02 13:48:06;;;;;;;7.05;1.35;;;;;;;;;;5894443;24;20346;-94
2022/11/02 14:01:36;;;;;;;4.82;1.05;;;;;;;;;;5916788;24;20048;-93
2022/11/02 14:05:56;;;;;;;2.83;0.80;;;;;;;;;;5872065;24;20030;-93
2022/11/02 14:09:44;;;;;;;7.75;0.88;;;;;;;;;;5895157;24;20028;-92
2022/11/02 14:13:13;;;;;;;6.22;1.10;;;;;;;;;;5818325;24;20042;-92
2022/11/02 14:17:40;;;;;;;8.90;1.40;;;;;;;;;;5762369;24;20103;-95
2022/11/02 14:21:21;;;;;;;4.97;1.20;;;;;;;;;;5790360;24;20537;-92
2022/11/02 14:25:28;;;;;;;4.05;0.88;;;;;;;;;;5797509;24;20113;-93
2022/11/02 14:29:13;;;;;;;8.65;1.23;;;;;;;;;;5818412;24;20023;-95
2022/11/02 14:33:05;;;;;;;6.60;1.13;;;;;;;;;;5926160;24;20033;-92
2022/11/02 14:36:54;;;;;;;7.32;1.10;;;;;;;;;;5897491;24;20037;-93
2022/11/02 14:44:34;;;;;;;4.85;1.63;;;;;;;;;;5869491;24;20025;-94
2022/11/02 14:51:39;;;;;;;5.18;0.90;;;;;;;;;;5918622;24;20026;-93
2022/11/02 14:55:43;;;;;;;7.75;1.80;;;;;;;;;;5880004;24;20513;-92
2022/11/02 14:59:26;;;;;;;7.25;1.10;;;;;;;;;;5898545;24;20053;-94
2022/11/02 15:02:52;;;;;;;4.03;1.00;;;;;;;;;;5852417;24;20094;-92
2022/11/02 15:06:30;;;;;;;6.55;1.27;;;;;;;;;;5832865;24;20391;-95
2022/11/02 15:10:50;;;;;;;8.25;1.17;;;;;;;;;;5795452;24;20014;-93
2022/11/02 15:15:19;;;;;;;5.80;0.73;;;;;;;;;;5758000;24;20028;-94
2022/11/02 15:22:58;;;;;;;9.98;1.65;;;;;;;;;;5747797;24;20024;-95
2022/11/02 15:26:49;;;;;;;6.60;1.05;;;;;;;;;;5759175;24;20463;-92
2022/11/02 15:29:55;;;;;;;4.35;1.10;;;;;;;;;;5766226;24;20397;-93
2022/11/02 15:34:09;;;;;;;3.53;1.10;;;;;;;;;;5736671;24;20017;-91
2022/11/02 15:37:40;;;;;;;2.58;0.75;;;;;;;;;;5616491;25;20018;-91
2022/11/02 15:41:55;;;;;;;8.63;1.17;;;;;;;;;;5542579;25;20036;-91
2022/11/02 15:45:35;;;;;;;5.30;1.30;;;;;;;;;;5579838;25;20392;-90
2022/11/02 15:57:47;;;;;;;2.83;0.80;;;;;;;;;;5615633;25;20025;-89
2022/11/02 16:21:45;;;;;;;6.05;0.93;;;;;;;;;;6337317;22;20010;-89
2022/11/02 16:26:18;;;;;;;5.82;1.20;;;;;;;;;;6321095;22;20038;-88
2022/11/02 16:34:20;;;;;;;4.35;1.33;;;;;;;;;;6252603;22;20466;-88
2022/11/02 17:01:22;;;;;;;;;;;;;;;;;;5145389;22;28117999;-88
2022/11/02 17:18:12;;;;;;;7.82;2.15;;;;;;;;;;6221004;23;20022;-93
2022/11/02 17:22:38;;;;;;;7.47;2.80;;;;;;;;;;6072260;23;20018;-93
2022/11/02 17:26:51;;;;;;;6.47;2.20;;;;;;;;;;5968899;24;20013;-93
2022/11/02 17:34:35;;;;;;;;;;;;;;;;;;5858177;24;20014;-94
2022/11/02 17:38:26;;;;;;;5.85;2.00;;;;;;;;;;5874590;24;19927;-93
2022/11/02 17:54:24;;;;;;;9.30;3.25;;;;;;;;;;5899061;24;20022;-94
2022/11/02 18:03:10;;;;;;;6.90;2.60;;;;;;;;;;6010190;23;20020;-93
2022/11/02 18:07:29;;;;;;;11.70;2.40;;;;;;;;;;6016018;23;20038;-93
2022/11/02 18:14:54;;;;;;;12.15;2.60;;;;;;;;;;6121088;23;19941;-93
2022/11/02 18:23:10;;;;;;;;;;;;;;;;;;6068471;23;20019;-93
2022/11/02 18:27:23;;;;;;;8.73;2.47;;;;;;;;;;6052132;23;19917;-93
2022/11/02 18:31:27;;;;;;;7.38;2.90;;;;;;;;;;5927577;24;20377;-92
2022/11/02 18:35:42;;;;;;;9.57;3.58;;;;;;;;;;5902112;24;20025;-93
2022/11/02 18:39:18;;;;;;;10.10;3.17;;;;;;;;;;5859200;24;20026;-93
2022/11/02 18:42:59;;;;;;;8.73;3.00;;;;;;;;;;5846338;24;20022;-92
2022/11/02 18:50:17;;;;;;;8.15;3.10;;;;;;;;;;5871982;24;20123;-93
2022/11/02 18:54:06;;;;;;;8.02;3.05;;;;;;;;;;5863562;24;20513;-92
2022/11/02 19:02:39;;;;;;;9.82;3.05;;;;;;;;;;5816892;24;20018;-93
2022/11/02 19:11:23;;;;;;;8.60;2.50;;;;;;;;;;5864802;24;20025;-92
2022/11/02 19:20:06;;;;;;;5.75;2.45;;;;;;;;;;5842081;24;20024;-93
2022/11/02 19:28:03;;;;;;;7.45;2.70;;;;;;;;;;5843758;24;20386;-93
2022/11/02 19:32:19;;;;;;;7.57;2.50;;;;;;;;;;5930237;24;20025;-94
2022/11/02 19:36:55;;;;;;;11.38;3.55;;;;;;;;;;6038111;23;20439;-93
2022/11/02 19:44:44;;;;;;;6.63;2.53;;;;;;;;;;6011344;23;20031;-93
2022/11/02 19:53:55;;;;;;;6.07;2.33;;;;;;;;;;6009812;23;20087;-93
2022/11/02 19:58:01;;;;;;;7.20;2.22;;;;;;;;;;5989343;23;20016;-92
2022/11/02 20:06:55;;;;;;;9.10;3.20;;;;;;;;;;6024325;23;20044;-93
2022/11/02 20:20:15;;;;;;;10.02;2.72;;;;;;;;;;5961116;24;20052;-93
2022/11/02 20:24:31;;;;;;;5.80;2.17;;;;;;;;;;5955395;24;20023;-93
2022/11/02 20:31:53;;;;;;;8.13;2.42;;;;;;;;;;5982383;24;19919;-94
2022/11/02 20:35:34;;;;;;;9.23;2.50;;;;;;;;;;5897956;24;20405;-94
2022/11/02 20:48:07;;;;;;;8.75;2.13;;;;;;;;;;6019084;23;20027;-93
2022/11/02 20:56:48;;;;;;;6.85;2.17;;;;;;;;;;5982110;24;20087;-94
2022/11/02 21:00:45;;;;;;;7.95;2.42;;;;;;;;;;5976088;24;20023;-93
2022/11/02 21:04:21;;;;;;;5.25;1.98;;;;;;;;;;5965882;23;20087;-93
2022/11/02 21:07:44;;;;;;;8.80;3.83;;;;;;;;;;5981545;23;20020;-93
2022/11/02 21:15:40;;;;;;;7.82;2.78;;;;;;;;;;5953960;24;20365;-93
2022/11/02 21:19:37;;;;;;;5.60;2.53;;;;;;;;;;5933008;24;20025;-93
2022/11/02 21:23:29;;;;;;;10.48;2.80;;;;;;;;;;5934418;24;20041;-93
2022/11/02 21:27:42;;;;;;;8.38;2.60;;;;;;;;;;5913790;24;20135;-93
2022/11/02 21:31:27;;;;;;;7.70;2.50;;;;;;;;;;5919490;24;20098;-93
2022/11/02 21:35:11;;;;;;;8.63;2.83;;;;;;;;;;5908195;24;20021;-93
2022/11/02 21:39:52;;;;;;;9.70;2.53;;;;;;;;;;5910558;24;20021;-93
2022/11/02 21:44:05;;;;;;;9.50;2.80;;;;;;;;;;6052623;23;20066;-93
2022/11/02 21:59:44;;;;;;;7.10;2.42;;;;;;;;;;6013606;23;20024;-93
2022/11/02 22:02:52;;;;;;;8.13;2.92;;;;;;;;;;5982160;24;20031;-89
2022/11/02 22:07:20;;;;;;;7.20;2.45;;;;;;;;;;5977833;24;20028;-89
2022/11/02 22:10:36;;;;;;;8.20;2.80;;;;;;;;;;6013539;23;20022;-91
2022/11/02 22:14:03;;;;;;;10.93;2.80;;;;;;;;;;6052435;23;20030;-88
2022/11/02 22:16:52;;;;;;;8.90;2.60;;;;;;;;;;5999562;23;20034;-88
2022/11/02 22:20:51;;;;;;;14.43;3.30;;;;;;;;;;5982571;23;20478;-88
2022/11/02 22:24:31;;;;;;;7.57;2.95;;;;;;;;;;5932161;24;20031;-91
2022/11/02 22:28:20;;;;;;;9.65;3.35;;;;;;;;;;5941805;24;20016;-91
2022/11/02 22:39:14;;;;;;;;;;;;;;;;;;6047132;23;20022;-91
2022/11/02 22:43:02;;;;;;;8.35;2.58;;;;;;;;;;6094243;23;19940;-88
2022/11/02 22:46:29;;;;;;;7.35;2.38;;;;;;;;;;5965433;23;20071;-88
2022/11/02 22:49:39;;;;;;;6.78;2.63;;;;;;;;;;5963481;23;20024;-88
2022/11/02 22:52:48;;;;;;;5.38;2.30;;;;;;;;;;5981798;23;20019;-89
2022/11/02 23:04:47;;;;;;;6.47;2.15;;;;;;;;;;6097248;23;20015;-88
2022/11/02 23:21:24;;;;;;;6.38;2.45;;;;;;;;;;6196486;23;20008;-88
2022/11/02 23:25:13;;;;;;;6.45;2.20;;;;;;;;;;6188546;23;20040;-89
2022/11/02 23:32:53;;;;;;;11.02;2.75;;;;;;;;;;6117350;23;20030;-91
2022/11/02 23:36:36;;;;;;;7.57;2.40;;;;;;;;;;6041277;23;20175;-91
2022/11/02 23:39:49;;;;;;;8.10;2.53;;;;;;;;;;6157749;23;20724;-92
2022/11/02 23:43:15;;;;;;;5.35;2.45;;;;;;;;;;6051218;23;20050;-91
2022/11/02 23:46:26;;;;;;;9.32;2.30;;;;;;;;;;6067878;23;20034;-91
2022/11/02 23:49:40;;;;;;;10.65;2.28;;;;;;;;;;5943985;23;20020;-91
2022/11/02 23:57:48;;;;;;;7.40;2.45;;;;;;;;;;6019603;23;20030;-90
